createdAt,value
2017-09-03T00:00:09.557Z,1013.2
2017-09-03T00:00:35.663Z,1013.17
2017-09-03T00:01:01.767Z,1013.17
2017-09-03T00:01:27.880Z,1013.19
2017-09-03T00:01:54.001Z,1013.15
2017-09-03T00:02:20.112Z,1013.15
2017-09-03T00:02:46.228Z,1013.14
2017-09-03T00:03:12.338Z,1013.16
2017-09-03T00:03:38.477Z,1013.15
2017-09-03T00:04:04.606Z,1013.14
2017-09-03T00:04:30.716Z,1013.12
2017-09-03T00:04:59.852Z,1013.11
2017-09-03T00:05:25.963Z,1013.11
2017-09-03T00:05:52.065Z,1013.12
2017-09-03T00:06:18.199Z,1013.06
2017-09-03T00:06:44.307Z,1013.08
2017-09-03T00:07:10.415Z,1013.06
2017-09-03T00:07:36.604Z,1013.06
2017-09-03T00:08:02.684Z,1013.1
2017-09-03T00:08:29.044Z,1013.03
2017-09-03T00:08:55.200Z,1013.03
2017-09-03T00:09:21.537Z,1013.06
2017-09-03T00:09:47.894Z,1013.02
2017-09-03T00:10:14.099Z,1013.03
2017-09-03T00:10:40.232Z,1013
2017-09-03T00:11:06.358Z,1012.99
2017-09-03T00:11:32.529Z,1012.99
2017-09-03T00:11:58.736Z,1013
2017-09-03T00:12:24.893Z,1012.98
2017-09-03T00:12:51.055Z,1012.99
2017-09-03T00:13:17.248Z,1012.98
2017-09-03T00:13:43.425Z,1012.98
2017-09-03T00:14:09.798Z,1013.02
2017-09-03T00:14:36.027Z,1012.94
2017-09-03T00:15:02.193Z,1013.03
2017-09-03T00:15:28.432Z,1012.95
2017-09-03T00:15:54.670Z,1012.99
2017-09-03T00:16:20.864Z,1012.97
2017-09-03T00:16:47.108Z,1012.98
2017-09-03T00:17:13.433Z,1012.98
2017-09-03T00:17:39.531Z,1012.99
2017-09-03T00:18:05.702Z,1012.99
2017-09-03T00:18:31.826Z,1012.97
2017-09-03T00:18:58.091Z,1013
2017-09-03T00:19:24.254Z,1012.97
2017-09-03T00:19:50.440Z,1012.99
2017-09-03T00:20:16.579Z,1012.98
2017-09-03T00:20:42.899Z,1013.01
2017-09-03T00:21:09.058Z,1013
2017-09-03T00:21:35.304Z,1012.96
2017-09-03T00:22:01.518Z,1012.97
2017-09-03T00:22:27.757Z,1012.97
2017-09-03T00:22:53.932Z,1012.97
2017-09-03T00:23:20.105Z,1012.99
2017-09-03T00:23:46.222Z,1013.01
2017-09-03T00:24:12.330Z,1012.97
2017-09-03T00:24:38.429Z,1013
2017-09-03T00:25:04.549Z,1012.99
2017-09-03T00:25:30.652Z,1012.97
2017-09-03T00:25:56.764Z,1013.01
2017-09-03T00:26:22.983Z,1012.98
2017-09-03T00:26:49.205Z,1013.03
2017-09-03T00:27:15.318Z,1012.95
2017-09-03T00:27:41.508Z,1012.97
2017-09-03T00:28:07.741Z,1012.96
2017-09-03T00:28:33.848Z,1012.95
2017-09-03T00:29:00.152Z,1012.96
2017-09-03T00:29:26.290Z,1012.97
2017-09-03T00:29:52.397Z,1012.96
2017-09-03T00:30:18.508Z,1012.96
2017-09-03T00:30:44.638Z,1012.94
2017-09-03T00:31:10.741Z,1012.93
2017-09-03T00:31:36.861Z,1012.91
2017-09-03T00:32:02.967Z,1012.88
2017-09-03T00:32:29.070Z,1012.98
2017-09-03T00:32:55.180Z,1012.91
2017-09-03T00:33:21.289Z,1012.9
2017-09-03T00:33:47.404Z,1012.9
2017-09-03T00:34:13.509Z,1012.91
2017-09-03T00:34:39.624Z,1012.91
2017-09-03T00:35:05.735Z,1012.93
2017-09-03T00:35:31.839Z,1012.94
2017-09-03T00:35:57.947Z,1012.9
2017-09-03T00:36:24.058Z,1012.91
2017-09-03T00:36:50.164Z,1012.9
2017-09-03T00:37:16.299Z,1012.93
2017-09-03T00:37:42.410Z,1012.92
2017-09-03T00:38:08.515Z,1012.96
2017-09-03T00:38:34.624Z,1012.94
2017-09-03T00:39:00.733Z,1012.91
2017-09-03T00:39:26.840Z,1012.92
2017-09-03T00:39:52.946Z,1012.92
2017-09-03T00:40:19.059Z,1012.92
2017-09-03T00:40:45.164Z,1012.9
2017-09-03T00:41:11.276Z,1012.93
2017-09-03T00:41:37.381Z,1012.91
2017-09-03T00:42:03.498Z,1012.93
2017-09-03T00:42:29.603Z,1012.9
2017-09-03T00:42:55.707Z,1012.92
2017-09-03T00:43:21.820Z,1012.92
2017-09-03T00:43:47.928Z,1012.93
2017-09-03T00:44:14.031Z,1012.92
2017-09-03T00:44:40.138Z,1012.93
2017-09-03T00:45:06.248Z,1012.93
2017-09-03T00:45:32.356Z,1012.94
2017-09-03T00:45:58.467Z,1012.94
2017-09-03T00:46:24.572Z,1012.91
2017-09-03T00:46:50.684Z,1012.91
2017-09-03T00:47:16.811Z,1012.9
2017-09-03T00:47:42.917Z,1012.97
2017-09-03T00:48:09.029Z,1012.93
2017-09-03T00:48:35.138Z,1012.96
2017-09-03T00:49:01.247Z,1012.93
2017-09-03T00:49:27.355Z,1012.91
2017-09-03T00:49:53.458Z,1012.94
2017-09-03T00:50:19.572Z,1012.94
2017-09-03T00:50:45.682Z,1012.97
2017-09-03T00:51:11.786Z,1012.97
2017-09-03T00:51:37.894Z,1012.96
2017-09-03T00:52:04.006Z,1012.99
2017-09-03T00:52:30.118Z,1012.95
2017-09-03T00:52:56.222Z,1012.96
2017-09-03T00:53:22.328Z,1012.97
2017-09-03T00:53:48.442Z,1012.94
2017-09-03T00:54:14.551Z,1012.97
2017-09-03T00:54:40.653Z,1012.97
2017-09-03T00:55:06.760Z,1013.01
2017-09-03T00:55:32.872Z,1012.97
2017-09-03T00:55:58.982Z,1012.96
2017-09-03T00:56:25.087Z,1012.98
2017-09-03T00:56:51.196Z,1012.95
2017-09-03T00:57:17.322Z,1012.95
2017-09-03T00:57:43.423Z,1012.98
2017-09-03T00:58:09.528Z,1012.95
2017-09-03T00:58:35.642Z,1012.97
2017-09-03T00:59:01.751Z,1012.94
2017-09-03T00:59:27.881Z,1012.93
2017-09-03T00:59:53.990Z,1012.95
2017-09-03T01:00:20.093Z,1012.93
2017-09-03T01:00:46.203Z,1012.91
2017-09-03T01:01:12.310Z,1012.92
2017-09-03T01:01:38.424Z,1012.92
2017-09-03T01:02:04.534Z,1012.96
2017-09-03T01:02:30.645Z,1012.94
2017-09-03T01:02:56.754Z,1012.91
2017-09-03T01:03:22.858Z,1012.97
2017-09-03T01:03:48.973Z,1012.92
2017-09-03T01:04:15.079Z,1012.93
2017-09-03T01:04:41.186Z,1012.93
2017-09-03T01:05:07.314Z,1012.9
2017-09-03T01:05:33.428Z,1012.92
2017-09-03T01:05:59.538Z,1012.9
2017-09-03T01:06:25.645Z,1012.91
2017-09-03T01:06:51.750Z,1012.93
2017-09-03T01:07:17.856Z,1012.89
2017-09-03T01:07:43.963Z,1012.93
2017-09-03T01:08:10.068Z,1012.91
2017-09-03T01:08:36.180Z,1012.92
2017-09-03T01:09:02.283Z,1012.93
2017-09-03T01:09:28.396Z,1012.9
2017-09-03T01:09:54.505Z,1012.89
2017-09-03T01:10:20.611Z,1012.91
2017-09-03T01:10:46.717Z,1012.88
2017-09-03T01:11:12.830Z,1012.88
2017-09-03T01:11:38.940Z,1012.93
2017-09-03T01:12:05.044Z,1012.92
2017-09-03T01:12:31.156Z,1012.91
2017-09-03T01:12:57.264Z,1012.92
2017-09-03T01:13:23.371Z,1012.92
2017-09-03T01:13:49.477Z,1012.94
2017-09-03T01:14:15.587Z,1012.9
2017-09-03T01:14:41.693Z,1012.92
2017-09-03T01:15:07.806Z,1012.89
2017-09-03T01:15:33.911Z,1012.88
2017-09-03T01:16:00.016Z,1012.88
2017-09-03T01:16:26.127Z,1012.89
2017-09-03T01:16:52.232Z,1012.85
2017-09-03T01:17:18.344Z,1012.86
2017-09-03T01:17:44.454Z,1012.85
2017-09-03T01:18:10.556Z,1012.85
2017-09-03T01:18:36.670Z,1012.85
2017-09-03T01:19:02.773Z,1012.81
2017-09-03T01:19:28.879Z,1012.82
2017-09-03T01:19:54.997Z,1012.77
2017-09-03T01:20:21.116Z,1012.8
2017-09-03T01:20:47.229Z,1012.79
2017-09-03T01:21:13.331Z,1012.81
2017-09-03T01:21:39.442Z,1012.81
2017-09-03T01:22:05.543Z,1012.78
2017-09-03T01:22:31.654Z,1012.81
2017-09-03T01:22:57.771Z,1012.79
2017-09-03T01:23:23.878Z,1012.8
2017-09-03T01:23:49.988Z,1012.8
2017-09-03T01:24:16.095Z,1012.77
2017-09-03T01:24:42.228Z,1012.76
2017-09-03T01:25:08.331Z,1012.78
2017-09-03T01:25:34.444Z,1012.76
2017-09-03T01:26:00.551Z,1012.74
2017-09-03T01:26:26.660Z,1012.76
2017-09-03T01:26:52.788Z,1012.75
2017-09-03T01:27:18.892Z,1012.78
2017-09-03T01:27:45.002Z,1012.79
2017-09-03T01:28:11.105Z,1012.77
2017-09-03T01:28:37.214Z,1012.78
2017-09-03T01:29:03.345Z,1012.78
2017-09-03T01:29:29.449Z,1012.79
2017-09-03T01:29:55.568Z,1012.77
2017-09-03T01:30:21.672Z,1012.77
2017-09-03T01:30:47.778Z,1012.75
2017-09-03T01:31:13.889Z,1012.74
2017-09-03T01:31:39.995Z,1012.73
2017-09-03T01:32:06.111Z,1012.72
2017-09-03T01:32:32.217Z,1012.73
2017-09-03T01:32:58.323Z,1012.72
2017-09-03T01:33:24.434Z,1012.72
2017-09-03T01:33:50.545Z,1012.7
2017-09-03T01:34:16.654Z,1012.73
2017-09-03T01:34:42.763Z,1012.74
2017-09-03T01:35:08.865Z,1012.73
2017-09-03T01:35:34.980Z,1012.71
2017-09-03T01:36:01.089Z,1012.71
2017-09-03T01:36:27.216Z,1012.7
2017-09-03T01:36:53.339Z,1012.7
2017-09-03T01:37:19.443Z,1012.71
2017-09-03T01:37:45.556Z,1012.71
2017-09-03T01:38:11.659Z,1012.69
2017-09-03T01:38:37.766Z,1012.69
2017-09-03T01:39:03.877Z,1012.68
2017-09-03T01:39:29.988Z,1012.72
2017-09-03T01:39:56.090Z,1012.69
2017-09-03T01:40:22.199Z,1012.64
2017-09-03T01:40:48.311Z,1012.68
2017-09-03T01:41:14.416Z,1012.66
2017-09-03T01:41:40.528Z,1012.66
2017-09-03T01:42:06.638Z,1012.66
2017-09-03T01:42:32.741Z,1012.66
2017-09-03T01:42:58.846Z,1012.64
2017-09-03T01:43:24.952Z,1012.65
2017-09-03T01:43:51.065Z,1012.61
2017-09-03T01:44:17.176Z,1012.62
2017-09-03T01:44:43.285Z,1012.61
2017-09-03T01:45:09.399Z,1012.62
2017-09-03T01:45:35.505Z,1012.6
2017-09-03T01:46:01.607Z,1012.58
2017-09-03T01:46:27.713Z,1012.63
2017-09-03T01:46:53.842Z,1012.62
2017-09-03T01:47:19.968Z,1012.6
2017-09-03T01:47:46.076Z,1012.61
2017-09-03T01:48:12.188Z,1012.6
2017-09-03T01:48:38.293Z,1012.57
2017-09-03T01:49:04.410Z,1012.59
2017-09-03T01:49:30.515Z,1012.56
2017-09-03T01:49:56.619Z,1012.6
2017-09-03T01:50:22.732Z,1012.57
2017-09-03T01:50:48.840Z,1012.56
2017-09-03T01:51:14.947Z,1012.54
2017-09-03T01:51:41.055Z,1012.54
2017-09-03T01:52:07.178Z,1012.52
2017-09-03T01:52:33.289Z,1012.53
2017-09-03T01:52:59.388Z,1012.49
2017-09-03T01:53:25.499Z,1012.51
2017-09-03T01:53:51.606Z,1012.49
2017-09-03T01:54:17.710Z,1012.46
2017-09-03T01:54:43.823Z,1012.51
2017-09-03T01:55:09.927Z,1012.48
2017-09-03T01:55:36.057Z,1012.46
2017-09-03T01:56:02.182Z,1012.47
2017-09-03T01:56:28.302Z,1012.5
2017-09-03T01:56:54.413Z,1012.49
2017-09-03T01:57:20.518Z,1012.5
2017-09-03T01:57:46.629Z,1012.5
2017-09-03T01:58:12.738Z,1012.49
2017-09-03T01:58:38.847Z,1012.5
2017-09-03T01:59:04.950Z,1012.5
2017-09-03T01:59:31.062Z,1012.53
2017-09-03T01:59:57.164Z,1012.52
2017-09-03T02:00:23.293Z,1012.53
2017-09-03T02:00:49.384Z,1012.49
2017-09-03T02:01:15.489Z,1012.53
2017-09-03T02:01:41.597Z,1012.58
2017-09-03T02:02:07.710Z,1012.53
2017-09-03T02:02:33.817Z,1012.55
2017-09-03T02:02:59.939Z,1012.53
2017-09-03T02:03:26.053Z,1012.52
2017-09-03T02:03:52.162Z,1012.57
2017-09-03T02:04:18.268Z,1012.55
2017-09-03T02:04:44.379Z,1012.53
2017-09-03T02:05:10.489Z,1012.57
2017-09-03T02:05:36.593Z,1012.59
2017-09-03T02:06:02.704Z,1012.55
2017-09-03T02:06:28.814Z,1012.58
2017-09-03T02:06:54.918Z,1012.5
2017-09-03T02:07:21.028Z,1012.52
2017-09-03T02:07:47.133Z,1012.5
2017-09-03T02:08:13.247Z,1012.52
2017-09-03T02:08:39.354Z,1012.51
2017-09-03T02:09:05.460Z,1012.55
2017-09-03T02:09:31.586Z,1012.53
2017-09-03T02:09:57.702Z,1012.51
2017-09-03T02:10:23.804Z,1012.55
2017-09-03T02:10:49.915Z,1012.52
2017-09-03T02:11:16.024Z,1012.51
2017-09-03T02:11:42.128Z,1012.54
2017-09-03T02:12:08.243Z,1012.56
2017-09-03T02:12:34.346Z,1012.54
2017-09-03T02:13:00.453Z,1012.55
2017-09-03T02:13:26.564Z,1012.56
2017-09-03T02:13:52.664Z,1012.54
2017-09-03T02:14:18.769Z,1012.55
2017-09-03T02:14:44.882Z,1012.58
2017-09-03T02:15:10.994Z,1012.53
2017-09-03T02:15:37.101Z,1012.53
2017-09-03T02:16:03.213Z,1012.58
2017-09-03T02:16:29.318Z,1012.56
2017-09-03T02:16:55.425Z,1012.54
2017-09-03T02:17:21.538Z,1012.51
2017-09-03T02:17:47.647Z,1012.52
2017-09-03T02:18:13.751Z,1012.52
2017-09-03T02:18:39.856Z,1012.54
2017-09-03T02:19:05.968Z,1012.48
2017-09-03T02:19:32.070Z,1012.47
2017-09-03T02:19:58.185Z,1012.48
2017-09-03T02:20:24.306Z,1012.48
2017-09-03T02:20:50.417Z,1012.47
2017-09-03T02:21:16.526Z,1012.49
2017-09-03T02:21:42.632Z,1012.45
2017-09-03T02:22:08.740Z,1012.46
2017-09-03T02:22:34.850Z,1012.47
2017-09-03T02:23:00.961Z,1012.46
2017-09-03T02:23:27.066Z,1012.44
2017-09-03T02:23:53.191Z,1012.43
2017-09-03T02:24:19.301Z,1012.46
2017-09-03T02:24:45.402Z,1012.45
2017-09-03T02:25:11.515Z,1012.48
2017-09-03T02:25:37.618Z,1012.45
2017-09-03T02:26:03.730Z,1012.45
2017-09-03T02:26:29.839Z,1012.44
2017-09-03T02:26:55.946Z,1012.42
2017-09-03T02:27:22.054Z,1012.46
2017-09-03T02:27:48.161Z,1012.47
2017-09-03T02:28:14.270Z,1012.41
2017-09-03T02:28:40.389Z,1012.42
2017-09-03T02:29:06.504Z,1012.42
2017-09-03T02:29:32.616Z,1012.37
2017-09-03T02:29:58.728Z,1012.38
2017-09-03T02:30:24.825Z,1012.39
2017-09-03T02:30:50.933Z,1012.41
2017-09-03T02:31:17.037Z,1012.39
2017-09-03T02:31:43.142Z,1012.4
2017-09-03T02:32:09.251Z,1012.39
2017-09-03T02:32:35.356Z,1012.38
2017-09-03T02:33:01.470Z,1012.35
2017-09-03T02:33:27.573Z,1012.36
2017-09-03T02:33:53.684Z,1012.34
2017-09-03T02:34:19.787Z,1012.34
2017-09-03T02:34:45.903Z,1012.33
2017-09-03T02:35:12.013Z,1012.32
2017-09-03T02:35:38.121Z,1012.35
2017-09-03T02:36:04.237Z,1012.36
2017-09-03T02:36:30.347Z,1012.35
2017-09-03T02:36:56.459Z,1012.32
2017-09-03T02:37:22.556Z,1012.34
2017-09-03T02:37:48.661Z,1012.36
2017-09-03T02:38:14.778Z,1012.35
2017-09-03T02:38:40.879Z,1012.37
2017-09-03T02:39:06.992Z,1012.36
2017-09-03T02:39:33.095Z,1012.39
2017-09-03T02:39:59.209Z,1012.34
2017-09-03T02:40:25.318Z,1012.35
2017-09-03T02:40:51.424Z,1012.34
2017-09-03T02:41:17.527Z,1012.36
2017-09-03T02:41:43.642Z,1012.38
2017-09-03T02:42:09.750Z,1012.4
2017-09-03T02:42:35.852Z,1012.41
2017-09-03T02:43:01.984Z,1012.4
2017-09-03T02:43:28.093Z,1012.39
2017-09-03T02:43:54.201Z,1012.42
2017-09-03T02:44:20.308Z,1012.43
2017-09-03T02:44:46.418Z,1012.42
2017-09-03T02:45:12.521Z,1012.39
2017-09-03T02:45:38.630Z,1012.38
2017-09-03T02:46:04.737Z,1012.41
2017-09-03T02:46:30.847Z,1012.41
2017-09-03T02:46:56.970Z,1012.36
2017-09-03T02:47:23.080Z,1012.44
2017-09-03T02:47:49.186Z,1012.42
2017-09-03T02:48:15.296Z,1012.43
2017-09-03T02:48:41.417Z,1012.44
2017-09-03T02:49:07.531Z,1012.42
2017-09-03T02:49:33.636Z,1012.45
2017-09-03T02:49:59.743Z,1012.43
2017-09-03T02:50:25.857Z,1012.4
2017-09-03T02:50:51.961Z,1012.45
2017-09-03T02:51:18.071Z,1012.44
2017-09-03T02:51:44.171Z,1012.42
2017-09-03T02:52:10.281Z,1012.44
2017-09-03T02:52:36.386Z,1012.42
2017-09-03T02:53:02.495Z,1012.45
2017-09-03T02:53:28.600Z,1012.45
2017-09-03T02:53:54.713Z,1012.42
2017-09-03T02:54:20.824Z,1012.42
2017-09-03T02:54:46.934Z,1012.46
2017-09-03T02:55:13.041Z,1012.44
2017-09-03T02:55:39.149Z,1012.46
2017-09-03T02:56:05.268Z,1012.46
2017-09-03T02:56:31.364Z,1012.4
2017-09-03T02:56:57.474Z,1012.43
2017-09-03T02:57:23.579Z,1012.44
2017-09-03T02:57:49.681Z,1012.4
2017-09-03T02:58:15.787Z,1012.44
2017-09-03T02:58:41.900Z,1012.42
2017-09-03T02:59:08.006Z,1012.4
2017-09-03T02:59:34.117Z,1012.41
2017-09-03T03:00:00.231Z,1012.43
2017-09-03T03:00:26.333Z,1012.41
2017-09-03T03:00:52.443Z,1012.43
2017-09-03T03:01:18.553Z,1012.41
2017-09-03T03:01:44.658Z,1012.42
2017-09-03T03:02:10.763Z,1012.39
2017-09-03T03:02:36.895Z,1012.39
2017-09-03T03:03:02.997Z,1012.42
2017-09-03T03:03:29.107Z,1012.4
2017-09-03T03:03:55.211Z,1012.4
2017-09-03T03:04:21.325Z,1012.38
2017-09-03T03:04:47.434Z,1012.4
2017-09-03T03:05:13.541Z,1012.38
2017-09-03T03:05:39.641Z,1012.45
2017-09-03T03:06:05.756Z,1012.4
2017-09-03T03:06:31.865Z,1012.41
2017-09-03T03:06:57.971Z,1012.43
2017-09-03T03:07:24.081Z,1012.42
2017-09-03T03:07:50.187Z,1012.42
2017-09-03T03:08:16.297Z,1012.41
2017-09-03T03:08:42.405Z,1012.42
2017-09-03T03:09:08.509Z,1012.38
2017-09-03T03:09:34.623Z,1012.38
2017-09-03T03:10:00.734Z,1012.41
2017-09-03T03:10:26.841Z,1012.38
2017-09-03T03:10:52.945Z,1012.38
2017-09-03T03:11:19.062Z,1012.38
2017-09-03T03:11:45.163Z,1012.39
2017-09-03T03:12:11.273Z,1012.41
2017-09-03T03:12:37.382Z,1012.39
2017-09-03T03:13:03.490Z,1012.35
2017-09-03T03:13:29.604Z,1012.36
2017-09-03T03:13:55.709Z,1012.37
2017-09-03T03:14:21.811Z,1012.37
2017-09-03T03:14:47.921Z,1012.36
2017-09-03T03:15:14.029Z,1012.38
2017-09-03T03:15:40.139Z,1012.38
2017-09-03T03:16:06.245Z,1012.36
2017-09-03T03:16:32.346Z,1012.37
2017-09-03T03:16:58.481Z,1012.37
2017-09-03T03:17:24.581Z,1012.37
2017-09-03T03:17:50.687Z,1012.38
2017-09-03T03:18:16.805Z,1012.38
2017-09-03T03:18:42.914Z,1012.37
2017-09-03T03:19:09.025Z,1012.37
2017-09-03T03:19:35.126Z,1012.4
2017-09-03T03:20:01.231Z,1012.34
2017-09-03T03:20:27.341Z,1012.37
2017-09-03T03:20:53.444Z,1012.4
2017-09-03T03:21:19.556Z,1012.38
2017-09-03T03:21:45.662Z,1012.37
2017-09-03T03:22:11.773Z,1012.42
2017-09-03T03:22:37.877Z,1012.41
2017-09-03T03:23:03.982Z,1012.41
2017-09-03T03:23:30.092Z,1012.41
2017-09-03T03:23:56.203Z,1012.38
2017-09-03T03:24:22.303Z,1012.39
2017-09-03T03:24:48.411Z,1012.38
2017-09-03T03:25:14.522Z,1012.37
2017-09-03T03:25:40.632Z,1012.37
2017-09-03T03:26:06.733Z,1012.4
2017-09-03T03:26:32.844Z,1012.39
2017-09-03T03:26:58.948Z,1012.37
2017-09-03T03:27:25.061Z,1012.39
2017-09-03T03:27:51.165Z,1012.37
2017-09-03T03:28:17.272Z,1012.36
2017-09-03T03:28:43.385Z,1012.37
2017-09-03T03:29:09.514Z,1012.38
2017-09-03T03:29:35.644Z,1012.38
2017-09-03T03:30:01.731Z,1012.35
2017-09-03T03:30:27.830Z,1012.35
2017-09-03T03:30:53.963Z,1012.35
2017-09-03T03:31:20.069Z,1012.34
2017-09-03T03:31:46.182Z,1012.33
2017-09-03T03:32:12.285Z,1012.31
2017-09-03T03:32:38.398Z,1012.31
2017-09-03T03:33:04.504Z,1012.31
2017-09-03T03:33:30.607Z,1012.29
2017-09-03T03:33:56.715Z,1012.31
2017-09-03T03:34:22.823Z,1012.32
2017-09-03T03:34:48.926Z,1012.32
2017-09-03T03:35:15.043Z,1012.35
2017-09-03T03:35:41.148Z,1012.33
2017-09-03T03:36:07.257Z,1012.33
2017-09-03T03:36:33.360Z,1012.31
2017-09-03T03:36:59.468Z,1012.34
2017-09-03T03:37:25.583Z,1012.34
2017-09-03T03:37:51.692Z,1012.37
2017-09-03T03:38:17.826Z,1012.33
2017-09-03T03:38:43.908Z,1012.36
2017-09-03T03:39:10.012Z,1012.33
2017-09-03T03:39:36.121Z,1012.32
2017-09-03T03:40:02.225Z,1012.33
2017-09-03T03:40:28.353Z,1012.32
2017-09-03T03:40:54.460Z,1012.31
2017-09-03T03:41:20.568Z,1012.32
2017-09-03T03:41:46.675Z,1012.3
2017-09-03T03:42:12.793Z,1012.31
2017-09-03T03:42:38.912Z,1012.3
2017-09-03T03:43:05.017Z,1012.29
2017-09-03T03:43:31.129Z,1012.29
2017-09-03T03:43:57.244Z,1012.32
2017-09-03T03:44:23.347Z,1012.35
2017-09-03T03:44:49.458Z,1012.32
2017-09-03T03:45:15.562Z,1012.3
2017-09-03T03:45:41.677Z,1012.34
2017-09-03T03:46:07.780Z,1012.3
2017-09-03T03:46:33.892Z,1012.31
2017-09-03T03:47:00.010Z,1012.31
2017-09-03T03:47:26.122Z,1012.33
2017-09-03T03:47:52.233Z,1012.3
2017-09-03T03:48:18.345Z,1012.3
2017-09-03T03:48:44.457Z,1012.28
2017-09-03T03:49:10.560Z,1012.31
2017-09-03T03:49:36.668Z,1012.3
2017-09-03T03:50:02.777Z,1012.28
2017-09-03T03:50:28.879Z,1012.27
2017-09-03T03:50:54.992Z,1012.28
2017-09-03T03:51:21.095Z,1012.27
2017-09-03T03:51:47.200Z,1012.3
2017-09-03T03:52:13.314Z,1012.28
2017-09-03T03:52:39.414Z,1012.25
2017-09-03T03:53:05.527Z,1012.25
2017-09-03T03:53:31.631Z,1012.27
2017-09-03T03:53:57.749Z,1012.28
2017-09-03T03:54:23.859Z,1012.28
2017-09-03T03:54:49.961Z,1012.28
2017-09-03T03:55:16.068Z,1012.26
2017-09-03T03:55:42.173Z,1012.26
2017-09-03T03:56:08.285Z,1012.24
2017-09-03T03:56:34.387Z,1012.24
2017-09-03T03:57:00.492Z,1012.22
2017-09-03T03:57:26.606Z,1012.25
2017-09-03T03:57:52.707Z,1012.22
2017-09-03T03:58:18.820Z,1012.19
2017-09-03T03:58:44.923Z,1012.21
2017-09-03T03:59:11.035Z,1012.21
2017-09-03T03:59:37.137Z,1012.2
2017-09-03T04:00:03.257Z,1012.17
2017-09-03T04:00:29.353Z,1012.19
2017-09-03T04:00:55.461Z,1012.19
2017-09-03T04:01:21.574Z,1012.16
2017-09-03T04:01:47.678Z,1012.18
2017-09-03T04:02:13.785Z,1012.18
2017-09-03T04:02:39.896Z,1012.18
2017-09-03T04:03:06.000Z,1012.17
2017-09-03T04:03:32.113Z,1012.18
2017-09-03T04:03:58.223Z,1012.18
2017-09-03T04:04:24.327Z,1012.22
2017-09-03T04:04:50.434Z,1012.2
2017-09-03T04:05:16.543Z,1012.22
2017-09-03T04:05:42.655Z,1012.22
2017-09-03T04:06:08.755Z,1012.21
2017-09-03T04:06:34.870Z,1012.21
2017-09-03T04:07:00.976Z,1012.25
2017-09-03T04:07:27.101Z,1012.26
2017-09-03T04:07:53.216Z,1012.22
2017-09-03T04:08:19.326Z,1012.27
2017-09-03T04:08:45.449Z,1012.27
2017-09-03T04:09:11.552Z,1012.23
2017-09-03T04:09:37.660Z,1012.24
2017-09-03T04:10:03.765Z,1012.26
2017-09-03T04:10:29.878Z,1012.24
2017-09-03T04:10:55.986Z,1012.23
2017-09-03T04:11:22.093Z,1012.24
2017-09-03T04:11:48.202Z,1012.23
2017-09-03T04:12:14.306Z,1012.2
2017-09-03T04:12:40.416Z,1012.21
2017-09-03T04:13:06.537Z,1012.17
2017-09-03T04:13:32.654Z,1012.19
2017-09-03T04:13:58.761Z,1012.18
2017-09-03T04:14:24.866Z,1012.17
2017-09-03T04:14:50.974Z,1012.16
2017-09-03T04:15:17.079Z,1012.17
2017-09-03T04:15:43.183Z,1012.15
2017-09-03T04:16:09.291Z,1012.17
2017-09-03T04:16:35.401Z,1012.15
2017-09-03T04:17:01.507Z,1012.14
2017-09-03T04:17:27.616Z,1012.14
2017-09-03T04:17:53.720Z,1012.14
2017-09-03T04:18:19.833Z,1012.16
2017-09-03T04:18:45.937Z,1012.15
2017-09-03T04:19:12.058Z,1012.17
2017-09-03T04:19:38.157Z,1012.15
2017-09-03T04:20:04.261Z,1012.14
2017-09-03T04:20:30.372Z,1012.15
2017-09-03T04:20:56.478Z,1012.16
2017-09-03T04:21:22.583Z,1012.17
2017-09-03T04:21:48.696Z,1012.15
2017-09-03T04:22:14.798Z,1012.15
2017-09-03T04:22:40.910Z,1012.14
2017-09-03T04:23:07.021Z,1012.17
2017-09-03T04:23:33.124Z,1012.12
2017-09-03T04:23:59.237Z,1012.12
2017-09-03T04:24:25.342Z,1012.11
2017-09-03T04:24:51.444Z,1012.14
2017-09-03T04:25:17.555Z,1012.13
2017-09-03T04:25:43.666Z,1012.08
2017-09-03T04:26:09.770Z,1012.13
2017-09-03T04:26:35.884Z,1012.1
2017-09-03T04:27:01.986Z,1012.09
2017-09-03T04:27:28.101Z,1012.11
2017-09-03T04:27:54.204Z,1012.12
2017-09-03T04:28:20.311Z,1012.11
2017-09-03T04:28:46.421Z,1012.11
2017-09-03T04:29:12.533Z,1012.08
2017-09-03T04:29:38.638Z,1012.07
2017-09-03T04:30:04.748Z,1012.08
2017-09-03T04:30:30.848Z,1012.09
2017-09-03T04:30:56.953Z,1012.05
2017-09-03T04:31:23.068Z,1012.1
2017-09-03T04:31:49.178Z,1012.05
2017-09-03T04:32:15.282Z,1012.05
2017-09-03T04:32:41.393Z,1012.09
2017-09-03T04:33:07.505Z,1012.07
2017-09-03T04:33:33.609Z,1012.05
2017-09-03T04:33:59.715Z,1012.06
2017-09-03T04:34:25.822Z,1012.03
2017-09-03T04:34:51.954Z,1012.03
2017-09-03T04:35:18.056Z,1012
2017-09-03T04:35:44.161Z,1011.99
2017-09-03T04:36:10.268Z,1012.01
2017-09-03T04:36:36.396Z,1011.98
2017-09-03T04:37:02.499Z,1011.93
2017-09-03T04:37:28.612Z,1011.95
2017-09-03T04:37:54.721Z,1011.97
2017-09-03T04:38:20.834Z,1011.93
2017-09-03T04:38:46.935Z,1011.97
2017-09-03T04:39:13.047Z,1011.95
2017-09-03T04:39:39.149Z,1011.93
2017-09-03T04:40:05.250Z,1011.93
2017-09-03T04:40:31.356Z,1011.91
2017-09-03T04:40:57.469Z,1011.93
2017-09-03T04:41:23.578Z,1011.93
2017-09-03T04:41:49.682Z,1011.93
2017-09-03T04:42:15.793Z,1011.94
2017-09-03T04:42:41.899Z,1011.94
2017-09-03T04:43:08.003Z,1011.93
2017-09-03T04:43:34.114Z,1011.89
2017-09-03T04:44:00.236Z,1011.94
2017-09-03T04:44:26.347Z,1011.92
2017-09-03T04:44:52.457Z,1011.98
2017-09-03T04:45:18.563Z,1011.94
2017-09-03T04:45:44.665Z,1011.94
2017-09-03T04:46:10.777Z,1011.92
2017-09-03T04:46:36.887Z,1011.9
2017-09-03T04:47:02.989Z,1011.95
2017-09-03T04:47:29.101Z,1011.96
2017-09-03T04:47:55.205Z,1011.94
2017-09-03T04:48:21.313Z,1011.93
2017-09-03T04:48:47.426Z,1011.98
2017-09-03T04:49:13.547Z,1011.95
2017-09-03T04:49:39.662Z,1011.97
2017-09-03T04:50:05.769Z,1011.96
2017-09-03T04:50:31.871Z,1011.96
2017-09-03T04:50:57.983Z,1011.91
2017-09-03T04:51:24.087Z,1011.94
2017-09-03T04:51:50.202Z,1011.94
2017-09-03T04:52:16.313Z,1011.9
2017-09-03T04:52:42.414Z,1011.93
2017-09-03T04:53:08.522Z,1011.97
2017-09-03T04:53:34.628Z,1011.93
2017-09-03T04:54:00.730Z,1011.9
2017-09-03T04:54:26.835Z,1011.93
2017-09-03T04:54:52.943Z,1011.95
2017-09-03T04:55:19.050Z,1011.95
2017-09-03T04:55:45.160Z,1011.95
2017-09-03T04:56:11.272Z,1011.95
2017-09-03T04:56:37.380Z,1011.95
2017-09-03T04:57:03.491Z,1011.91
2017-09-03T04:57:29.597Z,1011.9
2017-09-03T04:57:55.712Z,1011.92
2017-09-03T04:58:21.815Z,1011.91
2017-09-03T04:58:47.919Z,1011.93
2017-09-03T04:59:14.028Z,1011.9
2017-09-03T04:59:40.134Z,1011.91
2017-09-03T05:00:06.245Z,1011.91
2017-09-03T05:00:32.354Z,1011.91
2017-09-03T05:00:58.460Z,1011.92
2017-09-03T05:01:24.565Z,1011.96
2017-09-03T05:01:50.675Z,1011.93
2017-09-03T05:02:16.779Z,1011.95
2017-09-03T05:02:42.892Z,1011.93
2017-09-03T05:03:08.993Z,1011.92
2017-09-03T05:03:35.107Z,1011.94
2017-09-03T05:04:01.214Z,1011.95
2017-09-03T05:04:27.317Z,1011.96
2017-09-03T05:04:53.430Z,1011.96
2017-09-03T05:05:19.533Z,1011.96
2017-09-03T05:05:45.645Z,1011.95
2017-09-03T05:06:11.748Z,1011.91
2017-09-03T05:06:37.852Z,1011.93
2017-09-03T05:07:03.964Z,1011.94
2017-09-03T05:07:30.067Z,1011.92
2017-09-03T05:07:56.181Z,1011.97
2017-09-03T05:08:22.282Z,1011.92
2017-09-03T05:08:48.396Z,1011.91
2017-09-03T05:09:14.506Z,1011.91
2017-09-03T05:09:40.610Z,1011.92
2017-09-03T05:10:06.722Z,1011.91
2017-09-03T05:10:32.828Z,1011.93
2017-09-03T05:10:58.939Z,1011.94
2017-09-03T05:11:25.043Z,1011.91
2017-09-03T05:11:51.154Z,1011.92
2017-09-03T05:12:17.258Z,1011.92
2017-09-03T05:12:43.363Z,1011.9
2017-09-03T05:13:09.473Z,1011.95
2017-09-03T05:13:35.584Z,1011.93
2017-09-03T05:14:01.693Z,1011.95
2017-09-03T05:14:27.792Z,1011.94
2017-09-03T05:14:53.904Z,1011.91
2017-09-03T05:15:20.004Z,1011.9
2017-09-03T05:15:46.109Z,1011.96
2017-09-03T05:16:12.222Z,1011.94
2017-09-03T05:16:38.330Z,1011.92
2017-09-03T05:17:04.444Z,1011.98